Time;durP1;ratioP1;P1;durP2;ratioP2;P2;SDS_P1;SDS_P2;PMS_P1;PMS_P2;Temp;Humidity;BMP_temperature;BMP_pressure;BME280_temperature;BME280_humidity;BME280_pressure;Samples;Min_cycle;Max_cycle;Signal;HPM_P1;HPM_P2
2024/01/13 00:00:19;;;;;;;2.58;1.70;;;1.90;99.90;;;;;;5008881;28;20032;-85
2024/01/13 00:02:45;;;;;;;3.75;1.45;;;1.80;99.90;;;;;;5003507;28;20529;-85
2024/01/13 00:05:10;;;;;;;4.45;1.92;;;1.80;99.90;;;;;;5001941;28;20054;-85
2024/01/13 00:07:36;;;;;;;2.50;1.77;;;1.80;99.90;;;;;;5006427;28;20029;-85
2024/01/13 00:10:02;;;;;;;3.15;2.13;;;1.80;99.90;;;;;;5000740;28;20033;-86
2024/01/13 00:12:28;;;;;;;6.22;2.33;;;1.80;99.90;;;;;;5007798;28;20026;-85
2024/01/13 00:14:54;;;;;;;2.47;1.52;;;1.80;99.90;;;;;;4999042;28;20509;-84
2024/01/13 00:17:19;;;;;;;2.30;1.85;;;1.80;99.90;;;;;;5002739;28;20022;-84
2024/01/13 00:19:45;;;;;;;6.95;1.85;;;1.80;99.90;;;;;;5001592;28;20442;-85
2024/01/13 00:22:10;;;;;;;3.42;1.80;;;1.80;99.90;;;;;;5003167;28;20017;-86
2024/01/13 00:24:36;;;;;;;4.57;2.05;;;1.80;99.90;;;;;;5001715;28;20040;-84
2024/01/13 00:27:02;;;;;;;3.95;1.85;;;1.70;99.90;;;;;;5004855;28;20041;-85
2024/01/13 00:29:27;;;;;;;8.77;2.05;;;1.70;99.90;;;;;;5001152;28;20482;-84
2024/01/13 00:31:53;;;;;;;5.68;1.50;;;1.70;99.90;;;;;;5003945;28;21577;-85
2024/01/13 00:34:18;;;;;;;3.38;1.80;;;1.70;99.90;;;;;;5005889;28;20040;-88
2024/01/13 00:36:44;;;;;;;7.53;2.25;;;1.70;99.90;;;;;;5002806;28;20381;-85
2024/01/13 00:39:09;;;;;;;2.97;2.20;;;1.70;99.90;;;;;;5004580;28;20053;-85
2024/01/13 00:41:35;;;;;;;3.50;2.00;;;1.70;99.90;;;;;;5003217;28;20026;-84
2024/01/13 00:44:01;;;;;;;4.13;2.38;;;1.80;99.90;;;;;;5006643;28;20033;-85
2024/01/13 00:46:26;;;;;;;2.75;2.00;;;1.90;99.90;;;;;;5003726;28;20398;-85
2024/01/13 00:48:52;;;;;;;2.95;1.75;;;1.90;99.90;;;;;;5007637;28;20087;-85
2024/01/13 00:51:18;;;;;;;3.90;2.10;;;1.90;99.90;;;;;;4997565;28;20457;-84
2024/01/13 00:53:43;;;;;;;4.80;1.70;;;1.90;99.90;;;;;;5005554;28;20032;-85
2024/01/13 00:56:09;;;;;;;3.45;1.77;;;1.90;99.90;;;;;;5003002;28;20165;-84
2024/01/13 00:58:38;;;;;;;3.75;1.77;;;1.90;99.90;;;;;;5003348;28;20025;-84
2024/01/13 01:01:04;;;;;;;2.05;1.30;;;1.90;99.90;;;;;;5007471;28;20033;-85
2024/01/13 01:03:30;;;;;;;4.60;1.88;;;1.90;99.90;;;;;;4999233;28;20022;-84
2024/01/13 01:05:55;;;;;;;4.18;1.08;;;1.90;99.90;;;;;;5005956;28;20621;-85
2024/01/13 01:08:21;;;;;;;3.58;1.40;;;1.90;99.90;;;;;;4994454;28;20073;-85
2024/01/13 01:10:47;;;;;;;1.85;1.20;;;1.80;99.90;;;;;;5004467;28;20592;-85
2024/01/13 01:13:13;;;;;;;5.40;1.42;;;1.80;99.90;;;;;;5004941;28;20084;-85
2024/01/13 01:15:38;;;;;;;2.60;1.55;;;1.80;99.90;;;;;;5003824;28;20512;-86
2024/01/13 01:18:04;;;;;;;3.00;1.60;;;1.80;99.90;;;;;;5001813;28;20513;-85
2024/01/13 01:20:30;;;;;;;2.60;1.30;;;1.80;99.90;;;;;;5005156;28;20022;-85
2024/01/13 01:22:56;;;;;;;1.05;0.80;;;1.80;99.90;;;;;;5000521;28;20544;-84
2024/01/13 01:25:21;;;;;;;3.17;1.50;;;1.80;99.90;;;;;;5005201;28;20023;-85
2024/01/13 01:27:47;;;;;;;2.22;1.50;;;1.80;99.90;;;;;;4995041;28;20037;-85
2024/01/13 01:30:12;;;;;;;2.58;1.38;;;1.80;99.90;;;;;;5004120;28;20030;-85
2024/01/13 01:32:39;;;;;;;2.35;1.50;;;1.90;99.90;;;;;;5009567;28;20061;-85
2024/01/13 01:35:06;;;;;;;2.63;1.33;;;1.80;99.90;;;;;;5010814;28;20030;-85
2024/01/13 01:37:38;;;;;;;2.92;1.60;;;1.80;99.90;;;;;;5005943;28;20431;-85
2024/01/13 01:40:04;;;;;;;4.57;1.65;;;1.80;99.90;;;;;;5006314;28;20100;-85
2024/01/13 01:42:29;;;;;;;2.42;1.77;;;1.80;99.90;;;;;;5004922;28;20633;-85
2024/01/13 01:44:55;;;;;;;1.85;1.60;;;1.70;99.90;;;;;;4996276;28;20080;-84
2024/01/13 01:47:21;;;;;;;3.33;1.48;;;1.80;99.90;;;;;;5003099;28;20022;-85
2024/01/13 01:49:49;;;;;;;2.00;1.40;;;1.80;99.90;;;;;;4999358;28;20054;-85
2024/01/13 01:52:16;;;;;;;7.93;1.85;;;1.80;99.90;;;;;;5005810;28;20027;-85
2024/01/13 01:54:42;;;;;;;3.03;2.03;;;1.80;99.90;;;;;;5004827;28;20045;-85
2024/01/13 01:57:10;;;;;;;5.10;1.63;;;1.90;99.90;;;;;;4996344;28;20022;-84
2024/01/13 01:59:36;;;;;;;3.47;1.50;;;1.90;99.90;;;;;;5003732;28;20030;-86
2024/01/13 02:02:03;;;;;;;4.97;1.80;;;1.90;99.90;;;;;;5006147;28;20095;-85
2024/01/13 02:04:29;;;;;;;4.28;1.67;;;1.90;99.90;;;;;;5012248;28;20148;-85
2024/01/13 02:06:54;;;;;;;2.47;1.55;;;1.80;99.90;;;;;;4999881;28;20624;-85
2024/01/13 02:09:21;;;;;;;4.32;2.00;;;1.80;99.90;;;;;;5002046;28;20384;-86
2024/01/13 02:11:46;;;;;;;4.35;2.40;;;1.80;99.90;;;;;;5002887;28;20037;-85
2024/01/13 02:14:12;;;;;;;3.97;2.38;;;1.90;99.90;;;;;;5002005;28;20030;-85
2024/01/13 02:16:37;;;;;;;3.45;2.13;;;1.80;99.90;;;;;;5001360;28;20533;-85
2024/01/13 02:19:03;;;;;;;3.30;1.52;;;1.90;99.90;;;;;;5001256;28;20660;-85
2024/01/13 02:21:29;;;;;;;3.00;1.98;;;1.90;99.90;;;;;;5006981;28;20023;-86
2024/01/13 02:23:54;;;;;;;2.35;1.40;;;1.90;99.90;;;;;;5007678;28;20112;-85
2024/01/13 02:26:20;;;;;;;4.43;2.25;;;1.90;99.90;;;;;;5005390;28;20080;-85
2024/01/13 02:28:46;;;;;;;5.35;1.63;;;1.90;99.90;;;;;;4998322;28;20029;-85
2024/01/13 02:31:18;;;;;;;1.60;1.30;;;1.90;99.90;;;;;;5006371;28;20018;-85
2024/01/13 02:33:44;;;;;;;2.70;1.63;;;1.90;99.90;;;;;;5003070;28;20064;-86
2024/01/13 02:36:10;;;;;;;5.00;2.40;;;1.90;99.90;;;;;;5002908;28;20053;-85
2024/01/13 02:38:35;;;;;;;3.28;2.42;;;1.90;99.90;;;;;;5002936;28;20050;-85
2024/01/13 02:41:01;;;;;;;5.70;2.00;;;1.90;99.90;;;;;;5000791;28;20030;-85
2024/01/13 02:43:30;;;;;;;4.60;2.60;;;1.90;99.90;;;;;;5006774;28;20030;-85
2024/01/13 02:45:55;;;;;;;4.13;2.97;;;1.90;99.90;;;;;;5006105;28;20030;-85
2024/01/13 02:48:21;;;;;;;4.70;2.85;;;1.90;99.90;;;;;;5002618;28;20030;-85
2024/01/13 02:51:06;;;;;;;3.72;2.38;;;1.90;99.90;;;;;;4997274;28;20037;-86
2024/01/13 02:53:32;;;;;;;3.88;2.47;;;1.90;99.90;;;;;;4998518;28;20018;-85
2024/01/13 02:55:57;;;;;;;4.22;2.70;;;1.80;99.90;;;;;;5000975;28;20014;-85
2024/01/13 02:58:23;;;;;;;7.60;2.42;;;1.80;99.90;;;;;;4996334;28;20045;-85
2024/01/13 03:00:49;;;;;;;2.53;1.58;;;1.80;99.90;;;;;;4996540;28;20384;-86
2024/01/13 03:03:14;;;;;;;3.33;1.55;;;1.80;99.90;;;;;;5003237;28;20431;-85
2024/01/13 03:05:45;;;;;;;4.35;2.25;;;1.80;99.90;;;;;;5002924;28;20026;-86
2024/01/13 03:08:11;;;;;;;2.92;1.83;;;1.90;99.90;;;;;;5003425;28;20418;-85
2024/01/13 03:10:36;;;;;;;2.65;1.88;;;1.80;99.90;;;;;;5004172;28;20033;-86
2024/01/13 03:13:02;;;;;;;4.07;2.17;;;1.90;99.90;;;;;;5003655;28;20022;-85
2024/01/13 03:15:28;;;;;;;3.70;2.55;;;1.80;99.90;;;;;;5020438;28;20033;-85
2024/01/13 03:17:54;;;;;;;5.78;2.10;;;1.80;99.90;;;;;;5003035;28;20045;-85
2024/01/13 03:20:19;;;;;;;3.30;2.38;;;1.90;99.90;;;;;;5005723;28;20133;-85
2024/01/13 03:22:45;;;;;;;4.20;2.08;;;1.90;99.90;;;;;;5009251;28;20022;-85
2024/01/13 03:25:11;;;;;;;5.72;2.53;;;1.90;99.90;;;;;;5001797;28;20126;-86
2024/01/13 03:27:36;;;;;;;5.20;2.03;;;1.90;99.90;;;;;;5002918;28;20041;-86
2024/01/13 03:30:06;;;;;;;3.28;1.85;;;1.80;99.90;;;;;;5000144;28;20022;-85
2024/01/13 03:32:31;;;;;;;2.10;1.75;;;1.90;99.90;;;;;;5003594;28;20021;-85
2024/01/13 03:34:57;;;;;;;2.95;1.90;;;1.90;99.90;;;;;;5003273;28;20019;-86
2024/01/13 03:37:22;;;;;;;6.05;2.30;;;1.90;99.90;;;;;;5001600;28;20558;-86
2024/01/13 03:39:48;;;;;;;3.83;1.98;;;1.90;99.90;;;;;;5001247;28;20129;-87
2024/01/13 03:42:17;;;;;;;4.90;2.28;;;1.90;99.90;;;;;;5000133;28;20025;-87
2024/01/13 03:44:42;;;;;;;2.42;1.55;;;1.90;99.90;;;;;;4998915;28;20034;-86
2024/01/13 03:47:08;;;;;;;5.18;1.73;;;1.90;99.90;;;;;;5002208;28;20084;-86
2024/01/13 03:49:34;;;;;;;2.40;1.90;;;1.90;99.90;;;;;;4998561;28;20026;-87
2024/01/13 03:52:02;;;;;;;3.78;2.10;;;1.90;99.90;;;;;;5000558;28;20026;-86
2024/01/13 03:54:28;;;;;;;4.43;2.28;;;1.90;99.90;;;;;;4994584;28;20099;-87
2024/01/13 03:56:57;;;;;;;8.13;2.13;;;1.90;99.90;;;;;;5005331;28;20546;-87
2024/01/13 03:59:22;;;;;;;3.78;2.30;;;1.90;99.90;;;;;;4999940;28;20158;-86
2024/01/13 04:01:48;;;;;;;3.28;2.00;;;1.90;99.90;;;;;;5001650;28;20550;-86
2024/01/13 04:04:13;;;;;;;3.83;2.13;;;1.90;99.90;;;;;;5003372;28;20035;-87
2024/01/13 04:06:40;;;;;;;4.13;2.13;;;1.90;99.90;;;;;;4998968;28;20113;-86
2024/01/13 04:09:06;;;;;;;2.90;2.03;;;1.90;99.90;;;;;;5005336;28;20477;-87
2024/01/13 04:11:32;;;;;;;2.53;1.63;;;1.90;99.90;;;;;;5007331;28;20038;-84
2024/01/13 04:14:03;;;;;;;3.75;1.95;;;1.90;99.90;;;;;;5010055;28;20060;-83
2024/01/13 04:16:28;;;;;;;2.95;1.70;;;1.90;99.90;;;;;;5012093;28;20038;-84
2024/01/13 04:18:56;;;;;;;2.92;1.83;;;1.90;99.90;;;;;;5003044;28;20037;-85
2024/01/13 04:21:24;;;;;;;3.20;1.77;;;1.90;99.90;;;;;;4999701;28;20030;-84
2024/01/13 04:23:51;;;;;;;3.17;2.17;;;1.90;99.90;;;;;;5004080;28;20026;-83
2024/01/13 04:26:18;;;;;;;3.60;1.92;;;1.90;99.90;;;;;;5005244;28;20208;-84
2024/01/13 04:28:44;;;;;;;2.65;1.63;;;1.90;99.90;;;;;;4998922;28;20038;-84
2024/01/13 04:31:10;;;;;;;2.50;1.80;;;2.00;99.90;;;;;;5004697;28;20048;-85
2024/01/13 04:33:36;;;;;;;3.83;1.73;;;2.00;99.90;;;;;;5006118;28;20128;-84
2024/01/13 04:36:14;;;;;;;4.63;1.50;;;1.90;99.90;;;;;;4998866;28;20052;-83
2024/01/13 04:38:40;;;;;;;1.90;1.65;;;1.90;99.90;;;;;;5003775;28;20044;-84
2024/01/13 04:41:09;;;;;;;3.63;1.92;;;1.90;99.90;;;;;;5004044;28;20026;-84
2024/01/13 04:43:35;;;;;;;2.90;1.70;;;1.90;99.90;;;;;;5002656;28;20120;-84
2024/01/13 04:46:01;;;;;;;2.50;1.85;;;2.00;99.90;;;;;;4998192;28;20038;-84
2024/01/13 04:48:27;;;;;;;2.75;1.75;;;1.90;99.90;;;;;;4999297;28;20026;-84
2024/01/13 04:50:52;;;;;;;4.40;1.95;;;1.90;99.90;;;;;;4999084;28;20065;-83
2024/01/13 04:53:18;;;;;;;2.83;1.60;;;2.00;99.90;;;;;;5001646;28;20670;-83
2024/01/13 04:55:43;;;;;;;9.45;2.40;;;2.00;99.90;;;;;;5000006;28;20549;-84
2024/01/13 04:58:09;;;;;;;3.45;1.60;;;2.00;99.90;;;;;;5002996;28;20018;-84
2024/01/13 05:00:35;;;;;;;5.53;1.88;;;2.00;99.90;;;;;;5005795;28;20026;-84
2024/01/13 05:03:01;;;;;;;4.80;2.03;;;2.00;99.90;;;;;;5003228;28;20025;-83
2024/01/13 05:05:26;;;;;;;4.18;1.92;;;2.00;99.90;;;;;;5003641;28;20080;-84
2024/01/13 05:07:52;;;;;;;3.30;2.10;;;2.00;99.90;;;;;;5006666;28;20030;-84
2024/01/13 05:10:17;;;;;;;3.42;2.30;;;1.90;99.90;;;;;;5014989;28;20104;-84
2024/01/13 05:12:43;;;;;;;3.08;1.95;;;1.90;99.90;;;;;;5002335;28;20389;-84
2024/01/13 05:15:09;;;;;;;4.90;2.28;;;1.90;99.90;;;;;;4998864;28;20037;-84
2024/01/13 05:17:35;;;;;;;3.95;1.98;;;1.90;99.90;;;;;;5004246;28;20030;-84
2024/01/13 05:20:01;;;;;;;3.15;2.05;;;1.90;99.90;;;;;;4999584;28;20030;-84
2024/01/13 05:22:26;;;;;;;4.82;2.38;;;1.90;99.90;;;;;;5003629;28;20037;-84
2024/01/13 05:24:52;;;;;;;4.90;2.50;;;1.90;99.90;;;;;;5005979;28;20623;-85
2024/01/13 05:27:17;;;;;;;4.18;2.15;;;1.90;99.90;;;;;;5001949;28;20076;-84
2024/01/13 05:29:46;;;;;;;3.42;2.72;;;1.90;99.90;;;;;;4996573;28;20030;-84
2024/01/13 05:32:14;;;;;;;6.53;1.92;;;1.90;99.90;;;;;;4999895;28;20033;-84
2024/01/13 05:34:41;;;;;;;2.67;2.05;;;1.90;99.90;;;;;;5000073;28;20568;-85
2024/01/13 05:37:06;;;;;;;5.80;2.53;;;1.90;99.90;;;;;;5003595;28;20570;-84
2024/01/13 05:39:32;;;;;;;4.80;2.15;;;1.90;99.90;;;;;;5001216;28;20026;-85
2024/01/13 05:42:00;;;;;;;3.63;1.80;;;1.90;99.90;;;;;;5000325;28;20486;-84
2024/01/13 05:44:26;;;;;;;6.50;2.22;;;1.90;99.90;;;;;;4999105;28;20038;-84
2024/01/13 05:46:52;;;;;;;2.80;2.10;;;1.90;99.90;;;;;;5005600;28;20531;-85
2024/01/13 05:49:18;;;;;;;4.75;1.90;;;1.90;99.90;;;;;;5002545;28;20461;-84
2024/01/13 05:51:44;;;;;;;3.25;1.77;;;1.90;99.90;;;;;;5002260;28;20471;-84
2024/01/13 05:54:10;;;;;;;3.33;1.73;;;1.90;99.90;;;;;;5005727;28;20442;-84
2024/01/13 05:56:36;;;;;;;3.30;2.08;;;1.90;99.90;;;;;;5003308;28;20026;-85
2024/01/13 05:59:02;;;;;;;3.75;2.08;;;1.90;99.90;;;;;;5000939;28;20034;-85
2024/01/13 06:01:27;;;;;;;3.50;2.28;;;1.90;99.90;;;;;;5006397;28;20033;-86
2024/01/13 06:03:55;;;;;;;2.78;1.92;;;1.80;99.90;;;;;;5000815;28;20038;-87
2024/01/13 06:06:21;;;;;;;3.22;1.70;;;1.90;99.90;;;;;;5000511;28;20034;-86
2024/01/13 06:08:47;;;;;;;3.72;2.08;;;1.90;99.90;;;;;;5002080;28;20037;-87
2024/01/13 06:11:15;;;;;;;2.75;2.05;;;1.90;99.90;;;;;;5003091;28;20045;-86
2024/01/13 06:13:41;;;;;;;4.15;1.77;;;1.90;99.90;;;;;;5002002;28;20037;-86
2024/01/13 06:16:08;;;;;;;2.35;1.52;;;1.90;99.90;;;;;;5004025;28;20021;-86
2024/01/13 06:18:34;;;;;;;3.05;2.45;;;1.90;99.90;;;;;;5001872;28;20025;-86
2024/01/13 06:21:00;;;;;;;3.88;2.00;;;1.90;99.90;;;;;;5008904;28;20532;-86
2024/01/13 06:23:26;;;;;;;3.33;2.03;;;1.90;99.90;;;;;;5005304;28;20549;-85
2024/01/13 06:25:52;;;;;;;4.35;2.80;;;1.90;99.90;;;;;;5005346;28;20091;-85
2024/01/13 06:28:18;;;;;;;4.68;2.97;;;1.90;99.90;;;;;;5004784;28;20034;-84
2024/01/13 06:30:43;;;;;;;6.82;2.67;;;1.90;99.90;;;;;;5005349;28;20018;-85
2024/01/13 06:33:09;;;;;;;4.30;2.95;;;1.90;99.90;;;;;;5003246;28;20038;-85
2024/01/13 06:35:35;;;;;;;3.53;2.75;;;1.90;99.90;;;;;;5002424;28;20026;-84
2024/01/13 06:38:00;;;;;;;10.15;2.92;;;1.90;99.90;;;;;;5002495;28;20028;-85
2024/01/13 06:40:26;;;;;;;5.75;2.80;;;1.80;99.90;;;;;;5002638;28;20018;-85
2024/01/13 06:42:54;;;;;;;4.18;3.28;;;1.90;99.90;;;;;;4998919;28;20479;-84
2024/01/13 06:45:20;;;;;;;5.22;2.85;;;1.90;99.90;;;;;;5003852;28;20026;-84
2024/01/13 06:47:45;;;;;;;5.05;2.78;;;1.90;99.90;;;;;;4999784;28;20086;-85
2024/01/13 06:50:11;;;;;;;5.78;3.20;;;1.90;99.90;;;;;;4999770;28;20014;-84
2024/01/13 06:52:38;;;;;;;6.53;2.97;;;1.80;99.90;;;;;;4997361;28;20282;-85
2024/01/13 06:55:06;;;;;;;8.07;3.15;;;1.80;99.90;;;;;;4999346;28;20225;-85
2024/01/13 06:57:31;;;;;;;5.30;2.72;;;1.80;99.90;;;;;;5011301;28;20025;-84
2024/01/13 07:00:00;;;;;;;5.88;3.47;;;1.80;99.90;;;;;;4994833;28;20027;-85
2024/01/13 07:02:25;;;;;;;5.82;3.70;;;1.80;99.90;;;;;;5001493;28;20596;-84
2024/01/13 07:05:02;;;;;;;6.75;3.72;;;1.80;99.90;;;;;;4998261;28;20048;-84
2024/01/13 07:07:28;;;;;;;4.95;3.33;;;1.80;99.90;;;;;;5003957;28;20041;-86
2024/01/13 07:10:09;;;;;;;8.45;4.38;;;1.80;99.90;;;;;;4998698;28;20034;-85
2024/01/13 07:12:35;;;;;;;6.38;3.35;;;1.80;99.90;;;;;;5002246;28;20026;-86
2024/01/13 07:15:14;;;;;;;5.78;3.42;;;1.80;99.90;;;;;;5000140;28;20374;-85
2024/01/13 07:18:02;;;;;;;8.98;4.43;;;1.90;99.90;;;;;;5005297;28;20034;-85
2024/01/13 07:20:31;;;;;;;8.13;4.72;;;1.90;99.90;;;;;;4993231;28;20093;-85
2024/01/13 07:22:59;;;;;;;9.55;4.22;;;1.90;99.90;;;;;;5001522;28;20026;-85
2024/01/13 07:25:25;;;;;;;7.82;4.30;;;1.80;99.90;;;;;;5001829;28;20022;-85
2024/01/13 07:27:51;;;;;;;11.63;5.85;;;1.90;99.90;;;;;;5000514;28;20022;-86
2024/01/13 07:30:25;;;;;;;9.80;5.55;;;1.90;99.90;;;;;;4997738;28;20117;-86
2024/01/13 07:32:54;;;;;;;9.32;5.28;;;1.90;99.90;;;;;;4994753;28;20490;-86
2024/01/13 07:35:20;;;;;;;7.30;4.60;;;1.90;99.90;;;;;;5003054;28;20522;-85
2024/01/13 07:37:45;;;;;;;10.00;4.65;;;1.90;99.90;;;;;;5001350;28;20109;-86
2024/01/13 07:40:11;;;;;;;7.28;4.28;;;1.90;99.90;;;;;;5007255;28;20192;-85
2024/01/13 07:42:40;;;;;;;7.15;3.85;;;1.90;99.90;;;;;;5007640;28;20029;-86
2024/01/13 07:45:06;;;;;;;6.82;3.33;;;1.90;99.90;;;;;;5002590;28;20044;-85
2024/01/13 07:47:32;;;;;;;6.53;3.30;;;1.90;99.90;;;;;;5008311;28;20022;-85
2024/01/13 07:49:57;;;;;;;6.90;3.90;;;1.90;99.90;;;;;;5004761;28;20429;-85
2024/01/13 07:52:23;;;;;;;5.28;3.50;;;1.90;99.90;;;;;;5008600;28;20037;-86
2024/01/13 07:54:48;;;;;;;6.28;3.60;;;1.90;99.90;;;;;;5007406;28;20398;-86
2024/01/13 07:57:14;;;;;;;7.90;4.03;;;1.90;99.90;;;;;;5005013;28;20643;-86
2024/01/13 07:59:40;;;;;;;8.00;3.95;;;2.00;99.90;;;;;;5003310;28;20022;-84
2024/01/13 08:02:05;;;;;;;6.72;4.18;;;2.00;99.90;;;;;;5007869;28;20030;-86
2024/01/13 08:04:31;;;;;;;6.80;4.38;;;2.00;99.90;;;;;;5010444;28;20025;-87
2024/01/13 08:06:57;;;;;;;8.80;4.13;;;1.90;99.90;;;;;;5005174;28;20117;-86
2024/01/13 08:09:23;;;;;;;5.30;3.88;;;1.90;99.90;;;;;;5009001;28;20848;-86
2024/01/13 08:11:48;;;;;;;8.32;3.45;;;1.90;99.90;;;;;;5000341;28;20053;-85
2024/01/13 08:14:16;;;;;;;6.50;3.80;;;2.00;99.90;;;;;;5005617;28;20056;-86
2024/01/13 08:16:42;;;;;;;5.10;3.22;;;2.00;99.90;;;;;;4999062;28;20037;-86
2024/01/13 08:19:13;;;;;;;4.57;3.53;;;2.00;99.90;;;;;;5006202;28;20651;-86
2024/01/13 08:25:12;;;;;;;3.80;2.47;;;2.00;99.90;;;;;;5009857;28;20118;-87
2024/01/13 08:27:54;;;;;;;3.60;2.08;;;2.00;99.90;;;;;;5003712;28;20026;-86
2024/01/13 08:30:31;;;;;;;4.78;2.65;;;2.00;99.90;;;;;;5006288;28;20022;-86
2024/01/13 08:32:57;;;;;;;2.83;1.80;;;2.00;99.90;;;;;;5010607;28;20026;-86
2024/01/13 08:35:23;;;;;;;3.47;2.33;;;2.00;99.90;;;;;;5004908;28;20442;-86
2024/01/13 08:37:53;;;;;;;2.03;1.83;;;2.00;99.90;;;;;;5010744;28;20431;-86
2024/01/13 08:40:20;;;;;;;3.38;2.15;;;2.00;99.90;;;;;;5001432;28;20073;-85
2024/01/13 08:43:09;;;;;;;3.85;2.47;;;2.00;99.90;;;;;;5003355;28;20523;-85
2024/01/13 08:45:35;;;;;;;6.93;2.53;;;2.10;99.90;;;;;;5006583;28;20150;-87
2024/01/13 08:48:01;;;;;;;4.15;2.47;;;2.00;99.90;;;;;;5009762;28;20022;-86
2024/01/13 08:50:40;;;;;;;4.30;2.55;;;2.00;99.90;;;;;;5001103;28;20022;-86
2024/01/13 08:53:06;;;;;;;4.78;3.17;;;2.10;99.90;;;;;;5003932;28;20479;-87
2024/01/13 08:55:32;;;;;;;6.78;3.03;;;2.10;99.90;;;;;;4998201;28;20391;-87
2024/01/13 08:58:27;;;;;;;6.20;3.28;;;2.00;99.90;;;;;;5016371;28;20006;-87
2024/01/13 09:00:54;;;;;;;5.93;3.25;;;2.10;99.90;;;;;;4998749;28;20196;-87
2024/01/13 09:03:25;;;;;;;6.65;3.63;;;2.10;99.90;;;;;;5001635;28;20057;-87
2024/01/13 09:05:59;;;;;;;4.78;2.95;;;2.10;99.90;;;;;;5001686;28;20037;-87
2024/01/13 09:08:27;;;;;;;5.65;3.42;;;2.10;99.90;;;;;;4999280;28;20502;-87
2024/01/13 09:10:53;;;;;;;3.47;2.53;;;2.20;99.90;;;;;;5000067;28;20034;-87
2024/01/13 09:13:19;;;;;;;5.35;3.30;;;2.20;99.90;;;;;;5004169;28;20107;-86
2024/01/13 09:15:59;;;;;;;2.85;2.03;;;2.20;99.90;;;;;;5007597;28;20461;-86
2024/01/13 09:18:25;;;;;;;3.45;2.35;;;2.20;99.90;;;;;;5009838;28;20117;-87
2024/01/13 09:20:50;;;;;;;2.53;2.10;;;2.20;99.90;;;;;;5014773;23;20149;-48
2024/01/13 09:23:16;;;;;;;5.25;2.85;;;2.20;99.90;;;;;;5002417;28;20033;-50
2024/01/13 09:25:41;;;;;;;3.80;3.00;;;2.20;99.90;;;;;;5002078;28;20026;-51
2024/01/13 09:28:07;;;;;;;5.53;2.80;;;2.20;99.90;;;;;;5000584;28;20192;-49
2024/01/13 09:30:32;;;;;;;5.43;2.63;;;2.30;99.90;;;;;;5002477;28;20582;-47
2024/01/13 09:33:01;;;;;;;4.75;2.88;;;2.30;99.90;;;;;;4979600;22;20612;-87
2024/01/13 09:36:19;;;;;;;5.03;3.13;;;2.30;99.90;;;;;;4956237;28;20508;-86
2024/01/13 09:38:44;;;;;;;5.43;3.00;;;2.30;99.90;;;;;;4968829;28;20015;-87
2024/01/13 09:41:10;;;;;;;6.32;3.30;;;2.30;99.90;;;;;;4938203;29;20024;-87
2024/01/13 09:44:00;;;;;;;7.75;3.45;;;2.30;99.90;;;;;;4940696;29;20028;-85
2024/01/13 09:46:26;;;;;;;5.85;3.50;;;2.30;99.90;;;;;;4933535;29;20050;-87
2024/01/13 09:48:54;;;;;;;5.90;3.28;;;2.20;99.90;;;;;;4937130;28;20480;-87
2024/01/13 09:51:22;;;;;;;4.95;2.90;;;2.30;99.90;;;;;;4956176;28;20075;-87
2024/01/13 09:53:57;;;;;;;4.78;3.05;;;2.30;99.90;;;;;;4952161;28;20035;-87
2024/01/13 09:56:38;;;;;;;3.67;2.53;;;2.30;99.90;;;;;;4948635;28;20027;-87
2024/01/13 09:59:03;;;;;;;3.20;2.70;;;2.30;99.90;;;;;;4937753;29;20023;-86
2024/01/13 10:01:31;;;;;;;4.82;2.85;;;2.30;99.90;;;;;;4942663;28;20461;-87
2024/01/13 10:03:56;;;;;;;4.22;2.50;;;2.30;99.90;;;;;;4951120;28;20712;-86
2024/01/13 10:06:24;;;;;;;6.22;2.72;;;2.30;99.90;;;;;;4931474;29;20098;-87
2024/01/13 10:08:49;;;;;;;3.95;2.72;;;2.40;99.90;;;;;;4949259;28;20042;-87
2024/01/13 10:11:15;;;;;;;3.95;2.60;;;2.40;99.90;;;;;;4931731;29;20115;-86
2024/01/13 10:13:41;;;;;;;3.00;2.55;;;2.40;99.90;;;;;;4951213;28;20032;-86
2024/01/13 10:16:07;;;;;;;4.38;3.03;;;2.40;99.90;;;;;;4933379;29;20066;-87
2024/01/13 10:18:33;;;;;;;4.88;2.85;;;2.40;99.90;;;;;;4950800;28;20074;-86
2024/01/13 10:21:06;;;;;;;3.75;2.65;;;2.40;99.90;;;;;;4930532;29;20031;-86
2024/01/13 10:23:32;;;;;;;3.85;2.83;;;2.40;99.90;;;;;;4933763;29;20079;-86
2024/01/13 10:25:58;;;;;;;4.07;2.42;;;2.40;99.90;;;;;;4935811;29;20031;-86
2024/01/13 10:28:23;;;;;;;3.90;2.90;;;2.40;99.90;;;;;;4931759;29;20066;-87
2024/01/13 10:30:50;;;;;;;3.92;2.72;;;2.40;99.90;;;;;;4931331;29;20233;-87
2024/01/13 10:33:16;;;;;;;6.43;3.47;;;2.40;99.90;;;;;;4956955;28;20019;-86
2024/01/13 10:35:41;;;;;;;9.55;6.00;;;2.40;99.90;;;;;;4932121;29;20024;-86
2024/01/13 10:38:07;;;;;;;11.45;8.50;;;2.50;99.90;;;;;;4937438;29;20059;-86
2024/01/13 10:40:33;;;;;;;6.15;3.78;;;2.50;99.90;;;;;;4934696;28;20106;-87
2024/01/13 10:43:04;;;;;;;5.32;3.58;;;2.50;99.90;;;;;;4935869;29;20166;-87
2024/01/13 10:45:30;;;;;;;5.45;3.83;;;2.50;99.90;;;;;;4937689;29;20055;-87
2024/01/13 10:48:07;;;;;;;4.93;3.22;;;2.50;99.90;;;;;;4936770;29;20064;-86
2024/01/13 10:50:36;;;;;;;4.95;3.95;;;2.50;99.90;;;;;;4946258;28;20020;-87
2024/01/13 10:53:12;;;;;;;5.10;3.90;;;2.60;99.90;;;;;;4935881;28;20247;-87
2024/01/13 10:55:39;;;;;;;5.55;3.85;;;2.60;99.90;;;;;;4953201;28;20050;-87
2024/01/13 10:58:05;;;;;;;3.83;3.13;;;2.60;99.90;;;;;;4931400;29;20236;-86
2024/01/13 11:00:31;;;;;;;6.63;3.80;;;2.60;99.90;;;;;;4935543;29;20027;-86
2024/01/13 11:02:59;;;;;;;7.85;3.70;;;2.60;99.90;;;;;;4940076;29;20024;-86
2024/01/13 11:05:28;;;;;;;5.97;3.55;;;2.60;99.90;;;;;;4955542;28;20411;-86
2024/01/13 11:07:55;;;;;;;5.43;2.85;;;2.70;99.90;;;;;;4945763;28;20102;-86
2024/01/13 11:10:33;;;;;;;3.30;3.00;;;2.70;99.90;;;;;;4933860;29;20030;-86
2024/01/13 11:13:20;;;;;;;4.43;3.38;;;2.70;99.90;;;;;;4932322;28;20039;-87
2024/01/13 11:15:55;;;;;;;4.60;2.88;;;2.70;99.90;;;;;;4940791;29;20059;-85
2024/01/13 11:18:25;;;;;;;6.28;3.17;;;2.70;99.90;;;;;;4936258;29;20032;-86
2024/01/13 11:21:05;;;;;;;4.68;2.88;;;2.70;99.90;;;;;;4952443;28;20559;-87
2024/01/13 11:23:46;;;;;;;5.05;2.75;;;2.70;99.90;;;;;;4948578;28;20035;-86
2024/01/13 11:26:22;;;;;;;4.15;2.88;;;2.80;99.90;;;;;;4935343;29;20026;-86
2024/01/13 11:28:49;;;;;;;3.47;2.50;;;2.80;99.90;;;;;;4947061;28;20036;-86
2024/01/13 11:31:38;;;;;;;5.07;2.95;;;2.80;99.90;;;;;;4954992;28;20567;-87
2024/01/13 11:34:07;;;;;;;5.28;3.63;;;2.80;99.90;;;;;;4952349;28;20051;-86
2024/01/13 11:36:34;;;;;;;25.27;14.68;;;2.80;99.90;;;;;;4950524;28;20026;-86
2024/01/13 11:39:01;;;;;;;14.45;9.18;;;2.80;99.90;;;;;;4940772;29;20078;-87
2024/01/13 11:41:50;;;;;;;10.60;6.85;;;2.80;99.90;;;;;;4953593;28;20044;-87
2024/01/13 11:44:23;;;;;;;6.30;5.20;;;2.80;99.90;;;;;;4960103;28;20027;-87
2024/01/13 11:47:01;;;;;;;8.98;6.95;;;2.80;99.90;;;;;;4949977;28;20043;-86
2024/01/13 11:49:37;;;;;;;7.18;5.78;;;2.80;99.90;;;;;;4934899;29;20162;-86
2024/01/13 11:52:04;;;;;;;6.03;5.00;;;2.80;99.90;;;;;;4935629;29;20035;-86
2024/01/13 11:54:30;;;;;;;6.30;4.30;;;2.80;99.90;;;;;;4936496;29;20028;-86
2024/01/13 11:57:02;;;;;;;6.72;4.32;;;2.80;99.90;;;;;;4940309;29;20024;-86
2024/01/13 11:59:28;;;;;;;5.07;3.35;;;2.80;99.90;;;;;;4954466;28;20016;-87
2024/01/13 12:01:55;;;;;;;7.55;5.97;;;2.80;99.90;;;;;;4936241;29;20030;-86
2024/01/13 12:04:23;;;;;;;4.03;3.40;;;2.90;99.90;;;;;;4955547;28;20161;-87
2024/01/13 12:06:50;;;;;;;4.63;3.40;;;2.80;99.90;;;;;;4950496;28;20032;-86
2024/01/13 12:09:19;;;;;;;7.00;3.95;;;2.90;99.90;;;;;;4948877;28;20399;-86
2024/01/13 12:12:12;;;;;;;7.60;3.72;;;2.90;99.90;;;;;;4948709;28;20485;-86
2024/01/13 12:14:37;;;;;;;3.50;3.10;;;2.90;99.90;;;;;;4939281;29;20043;-85
2024/01/13 12:17:04;;;;;;;5.22;3.13;;;2.90;99.90;;;;;;4956022;28;20468;-86
2024/01/13 12:19:38;;;;;;;6.25;4.78;;;2.90;99.90;;;;;;4943334;29;20011;-85
2024/01/13 12:22:05;;;;;;;4.80;3.20;;;3.00;99.90;;;;;;4957402;28;20295;-86
2024/01/13 12:24:32;;;;;;;4.97;3.72;;;3.00;99.90;;;;;;4936854;29;20555;-85
2024/01/13 12:26:58;;;;;;;5.38;3.53;;;3.00;99.90;;;;;;4954748;28;20038;-86
2024/01/13 12:29:30;;;;;;;3.97;2.70;;;3.00;99.90;;;;;;4950918;28;20038;-87
2024/01/13 12:32:00;;;;;;;6.43;3.28;;;3.00;99.90;;;;;;4950244;28;20507;-86
2024/01/13 12:34:27;;;;;;;5.47;2.80;;;3.10;99.90;;;;;;4949779;28;20052;-86
2024/01/13 12:36:54;;;;;;;4.45;3.10;;;3.00;99.90;;;;;;4940942;29;20067;-86
2024/01/13 12:39:23;;;;;;;4.25;3.25;;;3.10;99.90;;;;;;4941393;28;20038;-86
2024/01/13 12:41:49;;;;;;;6.03;2.85;;;3.10;99.90;;;;;;4954188;28;20530;-87
2024/01/13 12:44:15;;;;;;;6.45;3.58;;;3.10;99.90;;;;;;4935752;29;20070;-87
2024/01/13 12:46:41;;;;;;;5.70;3.58;;;3.10;99.90;;;;;;4954569;28;20487;-85
2024/01/13 12:49:17;;;;;;;5.35;3.70;;;3.10;99.90;;;;;;4937053;28;20082;-86
2024/01/13 12:51:44;;;;;;;4.75;3.17;;;3.20;99.90;;;;;;4951262;28;20031;-86
2024/01/13 12:54:14;;;;;;;4.60;3.15;;;3.20;99.90;;;;;;4950112;28;20027;-86
2024/01/13 12:56:40;;;;;;;4.13;3.05;;;3.20;99.90;;;;;;4936112;29;20023;-87
2024/01/13 12:59:06;;;;;;;4.57;3.53;;;3.20;99.90;;;;;;4937078;28;20034;-84
2024/01/13 13:01:32;;;;;;;9.05;3.50;;;3.20;99.90;;;;;;4936494;28;20031;-86
2024/01/13 13:04:00;;;;;;;4.32;3.28;;;3.20;99.90;;;;;;4952941;28;20040;-86